sensor_id;sensor_type;location;lat;lon;timestamp;pressure;altitude;pressure_sealevel;temperature;humidity
69223;BME280;56514;51.816;-0.026;2023-08-08T00:02:41;101121.13;;;15.44;61.13
69223;BME280;56514;51.816;-0.026;2023-08-08T00:05:25;101115.94;;;15.42;60.56
69223;BME280;56514;51.816;-0.026;2023-08-08T00:08:10;101117.75;;;15.42;61.36
69223;BME280;56514;51.816;-0.026;2023-08-08T00:10:55;101115.22;;;15.40;61.06
69223;BME280;56514;51.816;-0.026;2023-08-08T00:13:41;101113.38;;;15.41;62.14
69223;BME280;56514;51.816;-0.026;2023-08-08T00:16:25;101117.16;;;15.38;61.94
69223;BME280;56514;51.816;-0.026;2023-08-08T00:19:10;101108.06;;;15.41;61.60
69223;BME280;56514;51.816;-0.026;2023-08-08T00:21:55;101107.69;;;15.45;61.42
69223;BME280;56514;51.816;-0.026;2023-08-08T00:24:40;101104.91;;;15.47;61.66
69223;BME280;56514;51.816;-0.026;2023-08-08T00:27:24;101101.31;;;15.48;60.76
69223;BME280;56514;51.816;-0.026;2023-08-08T00:30:11;101093.19;;;15.49;60.86
69223;BME280;56514;51.816;-0.026;2023-08-08T00:32:57;101091.50;;;15.48;61.16
69223;BME280;56514;51.816;-0.026;2023-08-08T00:35:42;101086.94;;;15.39;61.72
69223;BME280;56514;51.816;-0.026;2023-08-08T00:38:27;101082.09;;;15.33;62.75
69223;BME280;56514;51.816;-0.026;2023-08-08T00:41:12;101080.66;;;15.29;62.24
69223;BME280;56514;51.816;-0.026;2023-08-08T00:43:57;101075.00;;;15.23;62.34
69223;BME280;56514;51.816;-0.026;2023-08-08T00:46:42;101072.72;;;15.18;62.94
69223;BME280;56514;51.816;-0.026;2023-08-08T00:49:27;101075.00;;;15.12;63.35
69223;BME280;56514;51.816;-0.026;2023-08-08T00:52:13;101070.94;;;15.08;63.71
69223;BME280;56514;51.816;-0.026;2023-08-08T00:54:58;101069.63;;;15.02;63.57
69223;BME280;56514;51.816;-0.026;2023-08-08T00:57:43;101076.13;;;14.98;63.61
69223;BME280;56514;51.816;-0.026;2023-08-08T01:00:29;101067.44;;;14.96;63.98
69223;BME280;56514;51.816;-0.026;2023-08-08T01:03:13;101064.44;;;14.90;63.76
69223;BME280;56514;51.816;-0.026;2023-08-08T01:06:12;101059.75;;;14.82;64.25
69223;BME280;56514;51.816;-0.026;2023-08-08T01:09:02;101061.19;;;14.75;64.23
69223;BME280;56514;51.816;-0.026;2023-08-08T01:11:50;101061.31;;;14.74;63.73
69223;BME280;56514;51.816;-0.026;2023-08-08T01:14:42;101053.72;;;14.69;63.59
69223;BME280;56514;51.816;-0.026;2023-08-08T01:17:28;101051.91;;;14.70;63.42
69223;BME280;56514;51.816;-0.026;2023-08-08T01:20:14;101058.44;;;14.66;62.99
69223;BME280;56514;51.816;-0.026;2023-08-08T01:23:24;101052.53;;;14.62;63.18
69223;BME280;56514;51.816;-0.026;2023-08-08T01:26:12;101044.91;;;14.58;63.79
69223;BME280;56514;51.816;-0.026;2023-08-08T01:28:56;101047.69;;;14.56;63.48
69223;BME280;56514;51.816;-0.026;2023-08-08T01:31:41;101051.53;;;14.52;63.69
69223;BME280;56514;51.816;-0.026;2023-08-08T01:34:26;101050.09;;;14.48;64.28
69223;BME280;56514;51.816;-0.026;2023-08-08T01:37:19;101043.59;;;14.41;64.28
69223;BME280;56514;51.816;-0.026;2023-08-08T01:40:06;101055.28;;;14.39;63.78
69223;BME280;56514;51.816;-0.026;2023-08-08T01:42:53;101060.94;;;14.34;63.73
69223;BME280;56514;51.816;-0.026;2023-08-08T01:45:40;101047.34;;;14.28;63.74
69223;BME280;56514;51.816;-0.026;2023-08-08T01:48:25;101051.19;;;14.24;63.50
69223;BME280;56514;51.816;-0.026;2023-08-08T01:51:09;101055.25;;;14.17;63.16
69223;BME280;56514;51.816;-0.026;2023-08-08T01:53:54;101058.50;;;14.09;63.68
69223;BME280;56514;51.816;-0.026;2023-08-08T01:56:39;101057.75;;;14.07;63.59
69223;BME280;56514;51.816;-0.026;2023-08-08T01:59:24;101057.03;;;14.05;63.83
69223;BME280;56514;51.816;-0.026;2023-08-08T02:02:09;101055.47;;;14.02;63.50
69223;BME280;56514;51.816;-0.026;2023-08-08T02:04:54;101057.25;;;14.02;63.58
69223;BME280;56514;51.816;-0.026;2023-08-08T02:07:40;101060.03;;;14.00;63.43
69223;BME280;56514;51.816;-0.026;2023-08-08T02:10:25;101058.59;;;13.96;63.38
69223;BME280;56514;51.816;-0.026;2023-08-08T02:13:10;101059.91;;;13.91;63.42
69223;BME280;56514;51.816;-0.026;2023-08-08T02:15:55;101048.69;;;13.87;63.66
69223;BME280;56514;51.816;-0.026;2023-08-08T02:18:39;101055.19;;;13.83;63.81
69223;BME280;56514;51.816;-0.026;2023-08-08T02:21:26;101055.63;;;13.77;63.97
69223;BME280;56514;51.816;-0.026;2023-08-08T02:24:11;101050.56;;;13.74;64.16
69223;BME280;56514;51.816;-0.026;2023-08-08T02:26:56;101037.53;;;13.71;63.91
69223;BME280;56514;51.816;-0.026;2023-08-08T02:29:40;101040.31;;;13.70;64.03
69223;BME280;56514;51.816;-0.026;2023-08-08T02:32:25;101040.31;;;13.70;64.02
69223;BME280;56514;51.816;-0.026;2023-08-08T02:35:10;101043.47;;;13.75;64.11
69223;BME280;56514;51.816;-0.026;2023-08-08T02:37:55;101038.06;;;13.87;64.00
69223;BME280;56514;51.816;-0.026;2023-08-08T02:40:40;101038.22;;;13.97;63.85
69223;BME280;56514;51.816;-0.026;2023-08-08T02:43:25;101027.50;;;13.98;63.94
69223;BME280;56514;51.816;-0.026;2023-08-08T02:46:10;101028.69;;;13.94;63.37
69223;BME280;56514;51.816;-0.026;2023-08-08T02:48:55;101035.31;;;13.89;64.01
69223;BME280;56514;51.816;-0.026;2023-08-08T02:51:40;101036.50;;;13.85;63.82
69223;BME280;56514;51.816;-0.026;2023-08-08T02:54:25;101032.75;;;13.76;63.73
69223;BME280;56514;51.816;-0.026;2023-08-08T02:57:09;101026.09;;;13.71;64.10
69223;BME280;56514;51.816;-0.026;2023-08-08T02:59:57;101037.88;;;13.67;63.87
69223;BME280;56514;51.816;-0.026;2023-08-08T03:02:42;101034.41;;;13.66;64.00
69223;BME280;56514;51.816;-0.026;2023-08-08T03:05:27;101025.88;;;13.74;64.28
69223;BME280;56514;51.816;-0.026;2023-08-08T03:08:12;101035.19;;;13.90;64.30
69223;BME280;56514;51.816;-0.026;2023-08-08T03:10:57;101022.41;;;14.06;64.03
69223;BME280;56514;51.816;-0.026;2023-08-08T03:13:41;101022.06;;;14.22;64.00
69223;BME280;56514;51.816;-0.026;2023-08-08T03:16:26;101029.84;;;14.36;63.68
69223;BME280;56514;51.816;-0.026;2023-08-08T03:19:11;101036.94;;;14.47;63.73
69223;BME280;56514;51.816;-0.026;2023-08-08T03:21:57;101043.34;;;14.55;63.68
69223;BME280;56514;51.816;-0.026;2023-08-08T03:24:42;101044.44;;;14.64;63.51
69223;BME280;56514;51.816;-0.026;2023-08-08T03:27:27;101039.50;;;14.70;63.35
69223;BME280;56514;51.816;-0.026;2023-08-08T03:30:12;101036.59;;;14.73;63.79
69223;BME280;56514;51.816;-0.026;2023-08-08T03:32:57;101032.22;;;14.72;63.87
69223;BME280;56514;51.816;-0.026;2023-08-08T03:35:42;101039.25;;;14.73;63.64
69223;BME280;56514;51.816;-0.026;2023-08-08T03:38:28;101039.94;;;14.75;63.85
69223;BME280;56514;51.816;-0.026;2023-08-08T03:41:15;101047.91;;;14.75;63.77
69223;BME280;56514;51.816;-0.026;2023-08-08T03:44:00;101036.59;;;14.73;64.62
69223;BME280;56514;51.816;-0.026;2023-08-08T03:46:47;101025.34;;;14.70;64.97
69223;BME280;56514;51.816;-0.026;2023-08-08T03:49:31;101029.13;;;14.67;65.32
69223;BME280;56514;51.816;-0.026;2023-08-08T03:52:16;101031.28;;;14.62;65.21
69223;BME280;56514;51.816;-0.026;2023-08-08T03:55:01;101027.28;;;14.57;65.56
69223;BME280;56514;51.816;-0.026;2023-08-08T03:57:46;101032.38;;;14.49;65.43
69223;BME280;56514;51.816;-0.026;2023-08-08T04:00:31;101033.94;;;14.40;66.19
69223;BME280;56514;51.816;-0.026;2023-08-08T04:03:18;101030.31;;;14.30;67.22
69223;BME280;56514;51.816;-0.026;2023-08-08T04:06:03;101033.22;;;14.27;67.81
69223;BME280;56514;51.816;-0.026;2023-08-08T04:08:48;101033.47;;;14.24;68.12
69223;BME280;56514;51.816;-0.026;2023-08-08T04:11:33;101040.88;;;14.19;68.39
69223;BME280;56514;51.816;-0.026;2023-08-08T04:14:20;101044.81;;;14.26;69.08
69223;BME280;56514;51.816;-0.026;2023-08-08T04:17:05;101042.56;;;14.20;69.23
69223;BME280;56514;51.816;-0.026;2023-08-08T04:19:50;101043.31;;;14.22;69.15
69223;BME280;56514;51.816;-0.026;2023-08-08T04:22:35;101036.44;;;14.20;69.12
69223;BME280;56514;51.816;-0.026;2023-08-08T04:25:20;101031.84;;;14.22;69.24
69223;BME280;56514;51.816;-0.026;2023-08-08T04:28:06;101028.03;;;14.26;69.19
69223;BME280;56514;51.816;-0.026;2023-08-08T04:30:51;101038.66;;;14.26;69.43
69223;BME280;56514;51.816;-0.026;2023-08-08T04:33:35;101031.41;;;14.28;69.26
69223;BME280;56514;51.816;-0.026;2023-08-08T04:36:20;101033.34;;;14.26;69.80
69223;BME280;56514;51.816;-0.026;2023-08-08T04:39:05;101031.75;;;14.23;69.60
69223;BME280;56514;51.816;-0.026;2023-08-08T04:41:49;101032.69;;;14.22;69.63
69223;BME280;56514;51.816;-0.026;2023-08-08T04:44:34;101014.84;;;14.13;69.84
69223;BME280;56514;51.816;-0.026;2023-08-08T04:47:19;101016.63;;;14.12;70.01
69223;BME280;56514;51.816;-0.026;2023-08-08T04:50:04;101013.16;;;14.12;70.22
69223;BME280;56514;51.816;-0.026;2023-08-08T04:52:49;101012.66;;;14.07;70.11
69223;BME280;56514;51.816;-0.026;2023-08-08T04:55:33;101018.31;;;14.02;69.75
69223;BME280;56514;51.816;-0.026;2023-08-08T04:58:18;101011.22;;;14.03;69.85
69223;BME280;56514;51.816;-0.026;2023-08-08T05:01:03;101017.84;;;14.08;69.57
69223;BME280;56514;51.816;-0.026;2023-08-08T05:03:47;101019.41;;;14.11;69.62
69223;BME280;56514;51.816;-0.026;2023-08-08T05:06:33;101021.13;;;14.12;69.90
69223;BME280;56514;51.816;-0.026;2023-08-08T05:09:18;101018.81;;;14.07;69.88
69223;BME280;56514;51.816;-0.026;2023-08-08T05:12:05;101021.47;;;14.07;69.77
69223;BME280;56514;51.816;-0.026;2023-08-08T05:14:50;101022.41;;;14.06;69.73
69223;BME280;56514;51.816;-0.026;2023-08-08T05:17:35;101018.94;;;14.06;69.74
69223;BME280;56514;51.816;-0.026;2023-08-08T05:20:19;101015.56;;;14.15;69.46
69223;BME280;56514;51.816;-0.026;2023-08-08T05:23:04;101015.81;;;14.23;69.67
69223;BME280;56514;51.816;-0.026;2023-08-08T05:25:49;101020.66;;;14.40;69.70
69223;BME280;56514;51.816;-0.026;2023-08-08T05:28:34;101019.59;;;14.43;69.87
69223;BME280;56514;51.816;-0.026;2023-08-08T05:31:18;101010.16;;;14.39;69.65
69223;BME280;56514;51.816;-0.026;2023-08-08T05:34:03;101024.16;;;14.41;69.99
69223;BME280;56514;51.816;-0.026;2023-08-08T05:36:48;101023.69;;;14.47;69.58
69223;BME280;56514;51.816;-0.026;2023-08-08T05:39:34;101023.31;;;14.51;69.72
69223;BME280;56514;51.816;-0.026;2023-08-08T05:42:20;101026.09;;;14.61;69.40
69223;BME280;56514;51.816;-0.026;2023-08-08T05:45:05;101014.13;;;14.66;69.71
69223;BME280;56514;51.816;-0.026;2023-08-08T05:47:50;101004.84;;;14.72;68.99
69223;BME280;56514;51.816;-0.026;2023-08-08T05:50:35;101007.94;;;14.77;68.94
69223;BME280;56514;51.816;-0.026;2023-08-08T05:53:21;100994.28;;;14.81;68.63
69223;BME280;56514;51.816;-0.026;2023-08-08T05:56:06;101005.53;;;14.85;68.50
69223;BME280;56514;51.816;-0.026;2023-08-08T05:58:52;101002.50;;;14.78;68.54
69223;BME280;56514;51.816;-0.026;2023-08-08T06:02:01;101003.50;;;14.77;68.69
69223;BME280;56514;51.816;-0.026;2023-08-08T06:04:46;100996.94;;;14.81;68.59
69223;BME280;56514;51.816;-0.026;2023-08-08T06:07:30;101003.09;;;14.93;68.41
69223;BME280;56514;51.816;-0.026;2023-08-08T06:10:15;101013.69;;;15.04;68.28
69223;BME280;56514;51.816;-0.026;2023-08-08T06:13:01;101015.91;;;15.19;68.14
69223;BME280;56514;51.816;-0.026;2023-08-08T06:15:45;101012.97;;;15.44;66.94
69223;BME280;56514;51.816;-0.026;2023-08-08T06:18:30;101023.09;;;15.71;66.36
69223;BME280;56514;51.816;-0.026;2023-08-08T06:21:15;101024.88;;;15.82;66.24
69223;BME280;56514;51.816;-0.026;2023-08-08T06:23:59;101026.50;;;16.03;65.63
69223;BME280;56514;51.816;-0.026;2023-08-08T06:26:45;101020.41;;;16.12;64.26
69223;BME280;56514;51.816;-0.026;2023-08-08T06:29:30;101017.44;;;16.06;64.77
69223;BME280;56514;51.816;-0.026;2023-08-08T06:32:15;101011.00;;;16.08;65.23
69223;BME280;56514;51.816;-0.026;2023-08-08T06:35:00;101008.94;;;16.12;65.00
69223;BME280;56514;51.816;-0.026;2023-08-08T06:37:44;101011.84;;;16.09;65.04
69223;BME280;56514;51.816;-0.026;2023-08-08T06:40:29;101009.88;;;16.11;64.97
69223;BME280;56514;51.816;-0.026;2023-08-08T06:43:14;101002.03;;;16.09;64.91
69223;BME280;56514;51.816;-0.026;2023-08-08T06:45:59;101010.59;;;16.13;65.45
69223;BME280;56514;51.816;-0.026;2023-08-08T06:48:46;101017.72;;;16.33;65.42
69223;BME280;56514;51.816;-0.026;2023-08-08T06:51:32;101014.75;;;16.56;64.01
69223;BME280;56514;51.816;-0.026;2023-08-08T06:54:17;101014.22;;;16.72;63.78
69223;BME280;56514;51.816;-0.026;2023-08-08T06:57:02;101012.84;;;16.87;62.84
69223;BME280;56514;51.816;-0.026;2023-08-08T06:59:47;101011.91;;;17.07;63.06
69223;BME280;56514;51.816;-0.026;2023-08-08T07:02:35;101012.91;;;17.25;62.03
69223;BME280;56514;51.816;-0.026;2023-08-08T07:05:20;100997.91;;;17.33;61.94
69223;BME280;56514;51.816;-0.026;2023-08-08T07:08:07;100995.13;;;17.54;61.92
69223;BME280;56514;51.816;-0.026;2023-08-08T07:10:53;100994.81;;;17.76;60.61
69223;BME280;56514;51.816;-0.026;2023-08-08T07:13:40;100996.63;;;17.66;60.89
69223;BME280;56514;51.816;-0.026;2023-08-08T07:16:25;100992.16;;;17.67;61.32
69223;BME280;56514;51.816;-0.026;2023-08-08T07:19:10;100997.34;;;17.78;60.45
69223;BME280;56514;51.816;-0.026;2023-08-08T07:21:56;100992.81;;;17.88;60.25
69223;BME280;56514;51.816;-0.026;2023-08-08T07:24:41;100994.75;;;17.95;59.62
69223;BME280;56514;51.816;-0.026;2023-08-08T07:27:26;100991.81;;;17.98;59.64
69223;BME280;56514;51.816;-0.026;2023-08-08T07:30:12;100988.31;;;17.88;60.11
69223;BME280;56514;51.816;-0.026;2023-08-08T07:32:57;100990.09;;;18.07;59.02
69223;BME280;56514;51.816;-0.026;2023-08-08T07:35:41;100992.34;;;18.11;59.20
69223;BME280;56514;51.816;-0.026;2023-08-08T07:38:26;100986.91;;;18.30;59.02
69223;BME280;56514;51.816;-0.026;2023-08-08T07:41:11;100986.88;;;18.49;58.22
69223;BME280;56514;51.816;-0.026;2023-08-08T07:43:55;100989.28;;;18.43;58.03
69223;BME280;56514;51.816;-0.026;2023-08-08T07:46:40;100991.81;;;18.44;58.37
69223;BME280;56514;51.816;-0.026;2023-08-08T07:49:26;100990.03;;;18.62;57.65
69223;BME280;56514;51.816;-0.026;2023-08-08T07:52:10;100986.84;;;18.76;58.03
69223;BME280;56514;51.816;-0.026;2023-08-08T07:54:55;100990.84;;;18.90;57.56
69223;BME280;56514;51.816;-0.026;2023-08-08T07:57:40;100985.44;;;18.99;56.85
69223;BME280;56514;51.816;-0.026;2023-08-08T08:00:25;100985.06;;;19.12;55.89
69223;BME280;56514;51.816;-0.026;2023-08-08T08:03:10;100978.03;;;19.11;56.63
69223;BME280;56514;51.816;-0.026;2023-08-08T08:05:55;100984.91;;;19.13;55.55
69223;BME280;56514;51.816;-0.026;2023-08-08T08:08:40;100982.91;;;19.15;55.99
69223;BME280;56514;51.816;-0.026;2023-08-08T08:11:25;100969.69;;;19.14;56.10
69223;BME280;56514;51.816;-0.026;2023-08-08T08:14:10;100966.28;;;19.39;56.19
69223;BME280;56514;51.816;-0.026;2023-08-08T08:16:55;100965.31;;;19.66;55.21
69223;BME280;56514;51.816;-0.026;2023-08-08T08:19:40;100969.63;;;19.84;53.98
69223;BME280;56514;51.816;-0.026;2023-08-08T08:22:25;100984.34;;;19.80;54.73
69223;BME280;56514;51.816;-0.026;2023-08-08T08:25:09;100978.91;;;19.98;54.20
69223;BME280;56514;51.816;-0.026;2023-08-08T08:27:54;100983.00;;;20.10;54.00
69223;BME280;56514;51.816;-0.026;2023-08-08T08:30:40;100980.31;;;20.10;53.87
69223;BME280;56514;51.816;-0.026;2023-08-08T08:33:25;100978.16;;;20.31;52.55
69223;BME280;56514;51.816;-0.026;2023-08-08T08:36:10;100978.44;;;20.02;53.56
69223;BME280;56514;51.816;-0.026;2023-08-08T08:38:55;100981.03;;;20.12;53.68
69223;BME280;56514;51.816;-0.026;2023-08-08T08:41:40;100971.09;;;20.30;52.88
69223;BME280;56514;51.816;-0.026;2023-08-08T08:44:27;100972.06;;;20.21;53.65
69223;BME280;56514;51.816;-0.026;2023-08-08T08:47:17;100979.13;;;20.22;52.86
69223;BME280;56514;51.816;-0.026;2023-08-08T08:50:05;100976.97;;;20.33;53.37
69223;BME280;56514;51.816;-0.026;2023-08-08T08:52:51;100980.72;;;20.48;52.77
69223;BME280;56514;51.816;-0.026;2023-08-08T08:55:36;100980.72;;;20.48;52.62
69223;BME280;56514;51.816;-0.026;2023-08-08T08:58:21;100983.25;;;20.50;52.82
69223;BME280;56514;51.816;-0.026;2023-08-08T09:01:07;100978.28;;;20.71;52.46
69223;BME280;56514;51.816;-0.026;2023-08-08T09:03:52;100976.00;;;20.92;51.81
69223;BME280;56514;51.816;-0.026;2023-08-08T09:06:41;100979.91;;;20.98;51.41
69223;BME280;56514;51.816;-0.026;2023-08-08T09:09:26;100971.81;;;20.89;51.75
69223;BME280;56514;51.816;-0.026;2023-08-08T09:12:16;100966.59;;;20.80;51.79
69223;BME280;56514;51.816;-0.026;2023-08-08T09:15:01;100976.22;;;20.49;52.79
69223;BME280;56514;51.816;-0.026;2023-08-08T09:17:49;100979.81;;;20.32;54.23
69223;BME280;56514;51.816;-0.026;2023-08-08T09:20:34;100966.84;;;20.53;52.98
69223;BME280;56514;51.816;-0.026;2023-08-08T09:23:20;100964.19;;;20.61;53.40
69223;BME280;56514;51.816;-0.026;2023-08-08T09:26:05;100957.78;;;21.04;51.55
69223;BME280;56514;51.816;-0.026;2023-08-08T09:28:50;100949.91;;;21.18;51.44
69223;BME280;56514;51.816;-0.026;2023-08-08T09:31:35;100957.50;;;21.39;50.46
69223;BME280;56514;51.816;-0.026;2023-08-08T09:34:24;100957.16;;;21.34;50.84
69223;BME280;56514;51.816;-0.026;2023-08-08T09:37:10;100954.97;;;21.29;50.45
69223;BME280;56514;51.816;-0.026;2023-08-08T09:39:57;100969.38;;;21.04;51.20
69223;BME280;56514;51.816;-0.026;2023-08-08T09:42:42;100959.97;;;21.00;51.70
69223;BME280;56514;51.816;-0.026;2023-08-08T09:45:38;100956.13;;;21.11;50.99
69223;BME280;56514;51.816;-0.026;2023-08-08T09:48:29;100966.88;;;21.03;51.44
69223;BME280;56514;51.816;-0.026;2023-08-08T09:51:16;100955.88;;;20.88;50.95
69223;BME280;56514;51.816;-0.026;2023-08-08T09:54:01;100958.84;;;20.61;51.81
69223;BME280;56514;51.816;-0.026;2023-08-08T09:56:48;100960.50;;;20.62;52.26
69223;BME280;56514;51.816;-0.026;2023-08-08T09:59:35;100954.84;;;20.73;51.58
69223;BME280;56514;51.816;-0.026;2023-08-08T10:02:20;100949.88;;;20.94;51.69
69223;BME280;56514;51.816;-0.026;2023-08-08T10:05:06;100941.53;;;21.21;50.26
69223;BME280;56514;51.816;-0.026;2023-08-08T10:07:53;100941.69;;;21.04;50.91
69223;BME280;56514;51.816;-0.026;2023-08-08T10:10:39;100948.91;;;21.03;51.19
69223;BME280;56514;51.816;-0.026;2023-08-08T10:13:25;100950.41;;;20.98;51.86
69223;BME280;56514;51.816;-0.026;2023-08-08T10:16:10;100946.56;;;21.08;51.38
69223;BME280;56514;51.816;-0.026;2023-08-08T10:18:59;100945.38;;;21.11;51.03
69223;BME280;56514;51.816;-0.026;2023-08-08T10:21:45;100940.53;;;21.06;51.69
69223;BME280;56514;51.816;-0.026;2023-08-08T10:24:34;100932.47;;;21.30;51.76
69223;BME280;56514;51.816;-0.026;2023-08-08T10:27:34;100939.88;;;21.60;51.48
69223;BME280;56514;51.816;-0.026;2023-08-08T10:30:19;100939.84;;;21.84;50.44
69223;BME280;56514;51.816;-0.026;2023-08-08T10:33:04;100933.81;;;21.90;49.86
69223;BME280;56514;51.816;-0.026;2023-08-08T10:36:00;100936.50;;;21.82;50.00
69223;BME280;56514;51.816;-0.026;2023-08-08T10:38:50;100929.41;;;21.97;49.56
69223;BME280;56514;51.816;-0.026;2023-08-08T10:41:45;100930.66;;;22.25;49.32
69223;BME280;56514;51.816;-0.026;2023-08-08T10:44:31;100926.19;;;22.57;48.87
69223;BME280;56514;51.816;-0.026;2023-08-08T10:47:16;100926.69;;;22.83;47.69
69223;BME280;56514;51.816;-0.026;2023-08-08T10:50:11;100922.25;;;22.67;48.23
69223;BME280;56514;51.816;-0.026;2023-08-08T10:52:56;100922.72;;;22.71;47.49
69223;BME280;56514;51.816;-0.026;2023-08-08T10:55:41;100924.75;;;22.38;48.38
69223;BME280;56514;51.816;-0.026;2023-08-08T10:58:36;100932.91;;;22.14;48.53
69223;BME280;56514;51.816;-0.026;2023-08-08T11:01:24;100937.84;;;21.78;48.85
69223;BME280;56514;51.816;-0.026;2023-08-08T11:04:10;100938.88;;;21.45;49.99
69223;BME280;56514;51.816;-0.026;2023-08-08T11:06:56;100936.69;;;21.25;49.88
69223;BME280;56514;51.816;-0.026;2023-08-08T11:09:41;100937.84;;;21.06;51.15
69223;BME280;56514;51.816;-0.026;2023-08-08T11:12:26;100930.63;;;21.23;51.61
69223;BME280;56514;51.816;-0.026;2023-08-08T11:15:11;100921.94;;;21.53;51.68
69223;BME280;56514;51.816;-0.026;2023-08-08T11:17:56;100927.03;;;22.02;51.00
69223;BME280;56514;51.816;-0.026;2023-08-08T11:20:41;100924.97;;;22.20;50.13
69223;BME280;56514;51.816;-0.026;2023-08-08T11:23:27;100927.69;;;22.12;50.66
69223;BME280;56514;51.816;-0.026;2023-08-08T11:26:12;100932.78;;;21.91;51.00
69223;BME280;56514;51.816;-0.026;2023-08-08T11:29:02;100921.91;;;21.45;52.35
69223;BME280;56514;51.816;-0.026;2023-08-08T11:31:48;100920.25;;;21.44;53.62
69223;BME280;56514;51.816;-0.026;2023-08-08T11:34:33;100924.44;;;21.14;54.74
69223;BME280;56514;51.816;-0.026;2023-08-08T11:37:18;100928.75;;;20.91;56.43
69223;BME280;56514;51.816;-0.026;2023-08-08T11:40:05;100932.03;;;20.61;58.38
69223;BME280;56514;51.816;-0.026;2023-08-08T11:42:55;100931.91;;;20.29;58.90
69223;BME280;56514;51.816;-0.026;2023-08-08T11:45:42;100929.34;;;20.19;59.38
69223;BME280;56514;51.816;-0.026;2023-08-08T11:48:27;100925.91;;;20.35;59.72
69223;BME280;56514;51.816;-0.026;2023-08-08T11:51:15;100916.69;;;20.29;59.72
69223;BME280;56514;51.816;-0.026;2023-08-08T11:54:02;100917.34;;;20.31;59.73
69223;BME280;56514;51.816;-0.026;2023-08-08T11:56:47;100915.88;;;20.45;59.80
69223;BME280;56514;51.816;-0.026;2023-08-08T11:59:33;100913.22;;;20.53;59.32
69223;BME280;56514;51.816;-0.026;2023-08-08T12:02:18;100909.31;;;20.31;60.14
69223;BME280;56514;51.816;-0.026;2023-08-08T12:05:07;100907.84;;;20.11;61.18
69223;BME280;56514;51.816;-0.026;2023-08-08T12:07:53;100909.78;;;20.19;61.31
69223;BME280;56514;51.816;-0.026;2023-08-08T12:10:47;100913.88;;;20.47;60.67
69223;BME280;56514;51.816;-0.026;2023-08-08T12:13:32;100913.06;;;20.54;60.38
69223;BME280;56514;51.816;-0.026;2023-08-08T12:16:21;100911.38;;;20.45;60.61
69223;BME280;56514;51.816;-0.026;2023-08-08T12:19:08;100896.28;;;20.36;61.16
69223;BME280;56514;51.816;-0.026;2023-08-08T12:21:55;100903.56;;;20.60;60.50
69223;BME280;56514;51.816;-0.026;2023-08-08T12:24:41;100895.88;;;20.73;59.65
69223;BME280;56514;51.816;-0.026;2023-08-08T12:27:26;100886.31;;;20.70;60.07
69223;BME280;56514;51.816;-0.026;2023-08-08T12:30:11;100891.19;;;20.75;59.63
69223;BME280;56514;51.816;-0.026;2023-08-08T12:32:56;100886.81;;;20.74;59.82
69223;BME280;56514;51.816;-0.026;2023-08-08T12:35:40;100877.44;;;20.78;60.03
69223;BME280;56514;51.816;-0.026;2023-08-08T12:38:26;100868.59;;;20.94;60.27
69223;BME280;56514;51.816;-0.026;2023-08-08T12:41:11;100874.47;;;21.05;59.35
69223;BME280;56514;51.816;-0.026;2023-08-08T12:43:56;100875.09;;;20.91;60.27
69223;BME280;56514;51.816;-0.026;2023-08-08T12:46:41;100879.59;;;20.74;60.39
69223;BME280;56514;51.816;-0.026;2023-08-08T12:49:26;100868.03;;;20.66;61.28
69223;BME280;56514;51.816;-0.026;2023-08-08T12:52:11;100864.03;;;20.70;61.41
69223;BME280;56514;51.816;-0.026;2023-08-08T12:54:56;100860.00;;;20.66;61.51
69223;BME280;56514;51.816;-0.026;2023-08-08T12:57:41;100863.72;;;20.81;60.71
69223;BME280;56514;51.816;-0.026;2023-08-08T13:00:26;100860.34;;;20.79;61.06
69223;BME280;56514;51.816;-0.026;2023-08-08T13:03:11;100852.28;;;20.71;61.51
69223;BME280;56514;51.816;-0.026;2023-08-08T13:05:57;100854.66;;;20.66;62.22
69223;BME280;56514;51.816;-0.026;2023-08-08T13:08:42;100848.91;;;20.53;62.26
69223;BME280;56514;51.816;-0.026;2023-08-08T13:11:27;100859.13;;;20.41;62.67
69223;BME280;56514;51.816;-0.026;2023-08-08T13:14:12;100859.25;;;20.32;63.39
69223;BME280;56514;51.816;-0.026;2023-08-08T13:16:56;100852.88;;;20.33;63.53
69223;BME280;56514;51.816;-0.026;2023-08-08T13:19:42;100834.16;;;20.49;63.56
69223;BME280;56514;51.816;-0.026;2023-08-08T13:22:26;100831.34;;;20.66;63.31
69223;BME280;56514;51.816;-0.026;2023-08-08T13:25:11;100821.50;;;20.99;63.23
69223;BME280;56514;51.816;-0.026;2023-08-08T13:27:57;100825.44;;;21.51;62.21
69223;BME280;56514;51.816;-0.026;2023-08-08T13:30:42;100823.84;;;21.89;60.60
69223;BME280;56514;51.816;-0.026;2023-08-08T13:33:27;100815.47;;;21.84;60.81
69223;BME280;56514;51.816;-0.026;2023-08-08T13:36:13;100815.47;;;22.14;60.81
69223;BME280;56514;51.816;-0.026;2023-08-08T13:38:57;100811.47;;;22.41;59.51
69223;BME280;56514;51.816;-0.026;2023-08-08T13:41:43;100810.94;;;22.15;59.67
69223;BME280;56514;51.816;-0.026;2023-08-08T13:44:28;100804.59;;;21.77;60.17
69223;BME280;56514;51.816;-0.026;2023-08-08T13:47:13;100805.03;;;21.26;61.89
69223;BME280;56514;51.816;-0.026;2023-08-08T13:49:58;100807.25;;;21.07;63.24
69223;BME280;56514;51.816;-0.026;2023-08-08T13:52:43;100806.72;;;21.03;63.63
69223;BME280;56514;51.816;-0.026;2023-08-08T13:55:28;100804.91;;;20.96;63.90
69223;BME280;56514;51.816;-0.026;2023-08-08T13:58:13;100802.00;;;20.89;64.75
69223;BME280;56514;51.816;-0.026;2023-08-08T14:00:58;100802.03;;;20.81;65.87
69223;BME280;56514;51.816;-0.026;2023-08-08T14:03:44;100796.34;;;21.16;66.63
69223;BME280;56514;51.816;-0.026;2023-08-08T14:06:29;100792.16;;;22.15;63.41
69223;BME280;56514;51.816;-0.026;2023-08-08T14:09:14;100793.25;;;22.74;60.89
69223;BME280;56514;51.816;-0.026;2023-08-08T14:11:59;100791.59;;;22.50;61.28
69223;BME280;56514;51.816;-0.026;2023-08-08T14:14:45;100794.66;;;22.16;61.68
69223;BME280;56514;51.816;-0.026;2023-08-08T14:17:29;100789.84;;;22.04;61.59